createdAt,value
2022-09-15T00:00:29.207Z,46.18
2022-09-15T00:05:23.382Z,46.20
2022-09-15T00:10:17.753Z,46.38
2022-09-15T00:15:15.605Z,46.37
2022-09-15T00:20:10.803Z,46.39
2022-09-15T00:25:04.503Z,45.69
2022-09-15T00:29:58.260Z,45.53
2022-09-15T00:34:52.056Z,45.76
2022-09-15T00:39:46.903Z,45.45
2022-09-15T00:44:58.540Z,45.99
2022-09-15T00:49:58.975Z,45.68
2022-09-15T00:54:58.905Z,45.87
2022-09-15T00:59:56.693Z,45.77
2022-09-15T01:04:58.491Z,46.35
2022-09-15T01:09:56.581Z,46.42
2022-09-15T01:14:49.679Z,46.29
2022-09-15T01:19:42.652Z,46.59
2022-09-15T01:24:54.292Z,46.87
2022-09-15T01:30:03.354Z,46.66
2022-09-15T01:35:08.087Z,46.02
2022-09-15T01:40:02.721Z,46.53
2022-09-15T01:45:03.512Z,46.76
2022-09-15T01:50:03.676Z,47.01
2022-09-15T01:55:00.929Z,47.01
2022-09-15T01:59:57.008Z,46.82
2022-09-15T02:04:59.285Z,46.58
2022-09-15T02:10:03.737Z,47.17
2022-09-15T02:15:06.360Z,47.21
2022-09-15T02:20:12.184Z,46.92
2022-09-15T02:25:17.263Z,46.42
2022-09-15T02:30:14.683Z,46.40
2022-09-15T02:35:11.927Z,46.65
2022-09-15T02:40:06.727Z,46.71
2022-09-15T02:45:01.456Z,46.89
2022-09-15T02:49:54.947Z,46.60
2022-09-15T02:54:48.467Z,46.96
2022-09-15T03:00:13.416Z,46.88
2022-09-15T03:05:07.714Z,46.93
2022-09-15T03:10:01.925Z,47.18
2022-09-15T03:14:56.377Z,47.27
2022-09-15T03:19:51.257Z,46.95
2022-09-15T03:24:45.908Z,46.93
2022-09-15T03:29:40.069Z,47.44
2022-09-15T03:34:33.243Z,47.36
2022-09-15T03:39:27.062Z,46.89
2022-09-15T03:44:24.198Z,47.18
2022-09-15T03:49:17.653Z,46.79
2022-09-15T03:54:11.700Z,46.88
2022-09-15T03:59:06.646Z,46.92
2022-09-15T04:04:01.350Z,46.71
2022-09-15T04:08:55.668Z,47.49
2022-09-15T04:13:49.181Z,47.45
2022-09-15T04:18:43.208Z,47.71
2022-09-15T04:23:37.678Z,48.24
2022-09-15T04:28:34.137Z,47.88
2022-09-15T04:33:28.053Z,47.51
2022-09-15T04:38:21.236Z,47.82
2022-09-15T04:43:14.680Z,47.61
2022-09-15T04:48:08.531Z,47.97
2022-09-15T04:53:01.986Z,48.08
2022-09-15T04:57:55.992Z,47.84
2022-09-15T05:02:49.621Z,47.62
2022-09-15T05:07:43.988Z,47.57
2022-09-15T05:12:37.452Z,48.04
2022-09-15T05:17:33.593Z,47.77
2022-09-15T05:22:28.584Z,48.16
2022-09-15T05:27:21.936Z,47.95
2022-09-15T05:32:15.197Z,48.23
2022-09-15T05:37:08.885Z,48.33
2022-09-15T05:42:01.651Z,48.34
2022-09-15T05:46:54.859Z,48.50
2022-09-15T05:51:48.760Z,48.98
2022-09-15T05:56:42.558Z,48.67
2022-09-15T06:01:36.873Z,48.95
2022-09-15T06:06:32.400Z,48.79
2022-09-15T06:11:27.473Z,48.76
2022-09-15T06:16:30.152Z,49.22
2022-09-15T06:21:26.517Z,49.95
2022-09-15T06:26:20.416Z,49.95
2022-09-15T06:31:15.024Z,49.94
2022-09-15T06:36:10.645Z,50.06
2022-09-15T06:41:04.673Z,50.54
2022-09-15T06:46:04.685Z,50.35
2022-09-15T06:50:58.133Z,50.39
2022-09-15T06:55:51.765Z,50.80
2022-09-15T07:00:45.205Z,50.62
2022-09-15T07:05:38.735Z,50.75
2022-09-15T07:10:32.979Z,50.36
2022-09-15T07:15:28.343Z,50.47
2022-09-15T07:20:22.544Z,50.33
2022-09-15T07:25:16.491Z,50.37
2022-09-15T07:30:11.997Z,50.07
2022-09-15T07:35:06.355Z,50.55
2022-09-15T07:40:00.914Z,50.91
2022-09-15T07:45:00.821Z,51.83
2022-09-15T07:49:54.807Z,51.16
2022-09-15T07:54:49.274Z,50.87
2022-09-15T07:59:43.564Z,50.92
2022-09-15T08:04:37.300Z,50.81
2022-09-15T08:09:31.381Z,50.80
2022-09-15T08:14:25.677Z,50.57
2022-09-15T08:19:18.827Z,50.59
2022-09-15T08:24:13.895Z,50.49
2022-09-15T08:29:08.407Z,50.11
2022-09-15T08:34:04.924Z,50.10
2022-09-15T08:38:59.348Z,49.33
2022-09-15T08:44:08.773Z,48.98
2022-09-15T08:49:26.862Z,48.93
2022-09-15T08:54:31.763Z,48.11
2022-09-15T08:59:32.770Z,48.33
2022-09-15T09:05:06.013Z,47.97
2022-09-15T09:09:59.028Z,48.18
2022-09-15T09:15:35.109Z,48.18
2022-09-15T09:20:30.003Z,48.42
2022-09-15T09:25:28.313Z,48.50
2022-09-15T09:30:25.342Z,48.82
2022-09-15T09:35:35.158Z,51.73
2022-09-15T09:40:28.795Z,52.18
2022-09-15T09:45:23.289Z,52.39
2022-09-15T09:50:36.182Z,51.40
2022-09-15T09:55:29.889Z,52.17
2022-09-15T10:00:41.213Z,52.88
2022-09-15T10:05:34.278Z,53.84
2022-09-15T10:10:33.144Z,51.36
2022-09-15T10:15:29.527Z,52.95
2022-09-15T10:20:41.432Z,52.41
2022-09-15T10:25:58.507Z,51.96
2022-09-15T10:31:07.251Z,51.89
2022-09-15T10:36:05.551Z,51.99
2022-09-15T10:41:13.269Z,52.75
2022-09-15T10:46:19.204Z,52.17
2022-09-15T10:51:27.800Z,52.28
2022-09-15T10:56:26.676Z,51.39
2022-09-15T11:01:30.819Z,53.53
2022-09-15T11:06:43.257Z,53.85
2022-09-15T11:11:43.704Z,51.84
2022-09-15T11:17:01.882Z,51.66
2022-09-15T11:22:06.616Z,50.21
2022-09-15T11:27:23.818Z,51.08
2022-09-15T11:32:32.197Z,52.11
2022-09-15T11:37:52.186Z,52.30
2022-09-15T11:43:17.544Z,54.41
2022-09-15T11:48:32.212Z,54.25
2022-09-15T11:53:52.140Z,52.23
2022-09-15T11:59:04.268Z,50.99
2022-09-15T12:04:08.395Z,49.33
2022-09-15T12:09:07.161Z,50.68
2022-09-15T12:14:02.094Z,51.44
2022-09-15T12:19:25.973Z,50.93
2022-09-15T12:24:36.343Z,50.32
2022-09-15T12:29:41.791Z,49.59
2022-09-15T12:34:39.349Z,49.00
2022-09-15T12:39:49.641Z,49.49
2022-09-15T12:44:59.427Z,50.32
2022-09-15T12:49:58.010Z,51.43
2022-09-15T12:54:54.908Z,52.04
2022-09-15T12:59:48.887Z,51.58
2022-09-15T13:04:41.784Z,50.56
2022-09-15T13:09:45.661Z,51.16
2022-09-15T13:14:48.982Z,51.70
2022-09-15T13:19:47.193Z,52.06
2022-09-15T13:25:02.087Z,51.67
2022-09-15T13:30:04.427Z,52.12
2022-09-15T13:35:35.801Z,52.43
2022-09-15T13:40:54.467Z,52.49
2022-09-15T13:46:08.783Z,53.57
2022-09-15T13:51:44.209Z,52.66
2022-09-15T13:56:41.976Z,52.08
2022-09-15T14:01:57.434Z,52.21
2022-09-15T14:06:57.178Z,52.59
2022-09-15T14:11:57.368Z,53.04
2022-09-15T14:16:52.019Z,52.94
2022-09-15T14:21:56.250Z,53.06
2022-09-15T14:26:52.019Z,52.05
2022-09-15T14:31:45.769Z,52.46
2022-09-15T14:36:40.085Z,51.11
2022-09-15T14:41:35.122Z,50.68
2022-09-15T14:46:37.212Z,50.16
2022-09-15T14:51:34.211Z,49.75
2022-09-15T14:56:51.099Z,49.17
2022-09-15T15:01:58.624Z,48.80
2022-09-15T15:07:10.233Z,49.01
2022-09-15T15:12:11.989Z,49.28
2022-09-15T15:17:07.145Z,49.32
2022-09-15T15:22:21.367Z,46.50
2022-09-15T15:27:41.784Z,45.57
2022-09-15T15:32:35.669Z,45.31
2022-09-15T15:37:34.687Z,45.89
2022-09-15T15:42:29.495Z,45.94
2022-09-15T15:47:21.817Z,46.76
2022-09-15T15:52:16.491Z,45.98
2022-09-15T15:57:25.191Z,46.23
2022-09-15T16:02:18.711Z,45.84
2022-09-15T16:07:23.897Z,45.20
2022-09-15T16:12:17.744Z,45.50
2022-09-15T16:17:11.644Z,45.55
2022-09-15T16:22:06.266Z,45.78
2022-09-15T16:27:01.076Z,46.08
2022-09-15T16:31:55.317Z,45.92
2022-09-15T16:36:49.564Z,46.02
2022-09-15T16:41:44.021Z,46.05
2022-09-15T16:46:37.735Z,45.65
2022-09-15T16:51:32.308Z,45.65
2022-09-15T16:56:26.392Z,45.57
2022-09-15T17:01:21.398Z,45.35
2022-09-15T17:06:18.459Z,44.76
2022-09-15T17:11:16.763Z,44.68
2022-09-15T17:16:11.741Z,44.75
2022-09-15T17:21:05.620Z,44.24
2022-09-15T17:26:00.918Z,44.23
2022-09-15T17:30:58.617Z,43.82
2022-09-15T17:35:52.531Z,43.69
2022-09-15T17:40:46.117Z,43.28
2022-09-15T17:45:40.157Z,43.39
2022-09-15T17:50:37.083Z,42.93
2022-09-15T17:55:34.068Z,43.01
2022-09-15T18:00:31.064Z,42.99
2022-09-15T18:05:28.772Z,43.30
2022-09-15T18:10:23.162Z,42.86
2022-09-15T18:15:23.096Z,43.31
2022-09-15T18:20:19.029Z,43.13
2022-09-15T18:25:31.463Z,43.47
2022-09-15T18:30:31.971Z,43.19
2022-09-15T18:35:25.145Z,43.41
2022-09-15T18:40:19.691Z,43.49
2022-09-15T18:45:16.309Z,43.45
2022-09-15T18:50:12.490Z,43.70
2022-09-15T18:55:08.483Z,43.80
2022-09-15T19:00:03.447Z,43.17
2022-09-15T19:04:57.875Z,43.40
2022-09-15T19:09:56.381Z,43.34
2022-09-15T19:14:51.231Z,43.26
2022-09-15T19:19:47.190Z,42.84
2022-09-15T19:24:40.160Z,43.35
2022-09-15T19:29:35.378Z,44.00
2022-09-15T19:34:28.068Z,43.53
2022-09-15T19:39:22.360Z,43.81
2022-09-15T19:44:17.016Z,43.86
2022-09-15T19:49:11.252Z,43.01
2022-09-15T19:54:06.269Z,43.54
2022-09-15T19:59:00.240Z,43.00
2022-09-15T20:03:59.627Z,43.46
2022-09-15T20:08:54.836Z,43.26
2022-09-15T20:13:48.816Z,43.10
2022-09-15T20:18:43.521Z,43.19
2022-09-15T20:23:37.233Z,43.41
2022-09-15T20:28:30.238Z,42.70
2022-09-15T20:33:27.181Z,42.83
2022-09-15T20:38:20.665Z,42.16
2022-09-15T20:43:15.507Z,42.61
2022-09-15T20:48:14.383Z,42.87
2022-09-15T20:53:09.060Z,42.14
2022-09-15T20:58:03.603Z,42.32
2022-09-15T21:02:57.148Z,42.03
2022-09-15T21:07:52.788Z,42.74
2022-09-15T21:12:47.045Z,42.42
2022-09-15T21:17:42.233Z,42.57
2022-09-15T21:22:36.921Z,42.57
2022-09-15T21:27:31.988Z,42.92
2022-09-15T21:32:26.445Z,42.58
2022-09-15T21:37:20.117Z,42.81
2022-09-15T21:42:14.344Z,42.92
2022-09-15T21:47:10.265Z,43.06
2022-09-15T21:52:07.893Z,42.85
2022-09-15T21:57:02.042Z,43.20
2022-09-15T22:01:56.561Z,42.94
2022-09-15T22:06:51.531Z,43.11
2022-09-15T22:11:45.749Z,42.81
2022-09-15T22:16:41.422Z,42.49
2022-09-15T22:21:38.108Z,42.04
2022-09-15T22:26:35.661Z,42.19
2022-09-15T22:31:30.786Z,42.16
2022-09-15T22:36:30.277Z,42.15
2022-09-15T22:41:26.580Z,42.38
2022-09-15T22:46:20.983Z,41.87
2022-09-15T22:51:15.413Z,41.80
2022-09-15T22:56:20.414Z,41.76
2022-09-15T23:01:17.137Z,41.26
2022-09-15T23:06:10.806Z,40.77
2022-09-15T23:11:12.746Z,41.11
2022-09-15T23:16:07.416Z,40.63
2022-09-15T23:21:03.722Z,41.08
2022-09-15T23:25:57.684Z,40.85
2022-09-15T23:30:55.753Z,40.57
2022-09-15T23:35:49.842Z,40.86
2022-09-15T23:40:47.550Z,40.43
2022-09-15T23:45:42.026Z,40.37
2022-09-15T23:50:37.012Z,39.98
2022-09-15T23:55:31.138Z,40.42
